Terminal Aerodrome Forecast
Issued by NWS Missoula, MT

Home | Current Version | Previous Version | Text Only | Print | Product List | Glossary On
Versions: 1 2 3 4 5 6 7 8 9 10 11 12 13 14 15 16 17
000
FTUS45 KMSO 210520
TAFGPI
TAF
KGPI 210520Z 2106/2206 17007KT P6SM VCSH OVC040
     FM210900 00000KT 3SM BR OVC003
     FM211800 13005KT 6SM BR VCSH OVC010
     FM220000 18006KT 6SM -RA BR BKN004 OVC010=

USA.gov is the U.S. government's official web portal to all federal, state and local government web resources and services.